createdAt,value
2022-11-02T00:03:41.764Z,12.21
2022-11-02T00:08:44.501Z,12.12
2022-11-02T00:13:48.408Z,12.03
2022-11-02T00:18:52.692Z,11.93
2022-11-02T00:23:56.080Z,11.98
2022-11-02T00:29:00.330Z,12.00
2022-11-02T00:34:02.989Z,12.08
2022-11-02T00:39:05.531Z,12.07
2022-11-02T00:44:09.445Z,12.11
2022-11-02T00:49:12.239Z,12.02
2022-11-02T00:54:15.028Z,12.01
2022-11-02T00:59:19.592Z,12.01
2022-11-02T01:04:22.318Z,12.04
2022-11-02T01:09:25.027Z,12.05
2022-11-02T01:14:29.010Z,12.02
2022-11-02T01:19:31.659Z,12.00
2022-11-02T01:24:34.201Z,11.93
2022-11-02T01:29:38.104Z,11.86
2022-11-02T01:34:40.718Z,11.76
2022-11-02T01:39:44.128Z,11.72
2022-11-02T01:44:48.396Z,11.68
2022-11-02T01:49:54.885Z,11.69
2022-11-02T01:55:02.348Z,11.59
2022-11-02T02:00:09.384Z,11.54
2022-11-02T02:05:18.669Z,11.56
2022-11-02T02:10:21.730Z,11.53
2022-11-02T02:15:30.713Z,11.53
2022-11-02T02:20:43.282Z,11.40
2022-11-02T02:25:59.503Z,11.28
2022-11-02T02:31:10.195Z,11.31
2022-11-02T02:36:18.068Z,11.28
2022-11-02T02:41:26.478Z,11.22
2022-11-02T02:46:34.895Z,11.26
2022-11-02T02:51:38.431Z,11.27
2022-11-02T02:56:48.108Z,11.21
2022-11-02T03:01:52.363Z,11.17
2022-11-02T03:06:57.513Z,11.20
2022-11-02T03:12:08.881Z,11.25
2022-11-02T03:17:18.059Z,11.23
2022-11-02T03:22:29.661Z,11.23
2022-11-02T03:27:39.610Z,11.30
2022-11-02T03:32:49.861Z,11.27
2022-11-02T03:37:56.808Z,11.26
2022-11-02T03:43:00.860Z,11.23
2022-11-02T03:48:08.085Z,11.25
2022-11-02T03:53:13.734Z,11.20
2022-11-02T03:58:16.780Z,11.10
2022-11-02T04:03:23.885Z,11.12
2022-11-02T04:08:34.217Z,11.11
2022-11-02T04:13:57.368Z,11.16
2022-11-02T04:19:21.482Z,11.15
2022-11-02T04:24:42.203Z,11.11
2022-11-02T04:29:45.079Z,11.06
2022-11-02T04:34:49.425Z,11.04
2022-11-02T04:39:53.048Z,11.03
2022-11-02T04:44:55.804Z,10.99
2022-11-02T04:50:01.367Z,11.03
2022-11-02T04:55:05.548Z,11.06
2022-11-02T05:00:09.743Z,10.98
2022-11-02T05:05:14.721Z,10.93
2022-11-02T05:10:18.503Z,10.98
2022-11-02T05:15:22.863Z,11.01
2022-11-02T05:20:26.976Z,11.00
2022-11-02T05:25:30.208Z,11.04
2022-11-02T05:30:34.015Z,11.03
2022-11-02T05:35:38.159Z,11.04
2022-11-02T05:40:41.667Z,11.09
2022-11-02T05:45:46.483Z,11.10
2022-11-02T05:50:50.612Z,11.12
2022-11-02T05:55:53.588Z,11.14
2022-11-02T06:00:56.294Z,11.10
2022-11-02T06:06:00.788Z,11.14
2022-11-02T06:11:05.980Z,11.18
2022-11-02T06:16:11.099Z,11.20
2022-11-02T06:21:15.763Z,11.27
2022-11-02T06:26:18.366Z,11.31
2022-11-02T06:31:20.907Z,11.30
2022-11-02T06:36:24.912Z,11.27
2022-11-02T06:41:27.481Z,11.26
2022-11-02T06:46:30.075Z,11.30
2022-11-02T06:51:34.008Z,11.37
2022-11-02T06:56:36.600Z,11.43
2022-11-02T07:01:39.455Z,11.43
2022-11-02T07:06:43.618Z,11.43
2022-11-02T07:11:46.286Z,11.35
2022-11-02T07:16:48.880Z,11.38
2022-11-02T07:21:52.883Z,11.49
2022-11-02T07:26:55.701Z,11.55
2022-11-02T07:31:59.396Z,11.63
2022-11-02T07:37:03.366Z,11.72
2022-11-02T07:42:07.148Z,11.89
2022-11-02T07:47:09.776Z,11.91
2022-11-02T07:52:13.707Z,11.95
2022-11-02T07:57:16.377Z,12.02
2022-11-02T08:02:19.008Z,12.12
2022-11-02T08:07:23.186Z,12.18
2022-11-02T08:12:25.897Z,12.29
2022-11-02T08:17:28.525Z,12.32
2022-11-02T08:22:32.483Z,12.38
2022-11-02T08:27:35.306Z,12.42
2022-11-02T08:32:37.920Z,12.43
2022-11-02T08:37:42.141Z,12.32
2022-11-02T08:42:44.719Z,12.38
2022-11-02T08:47:47.484Z,12.50
2022-11-02T08:52:51.387Z,12.61
2022-11-02T08:57:54.973Z,12.66
2022-11-02T09:03:02.432Z,12.72
2022-11-02T09:08:08.612Z,12.83
2022-11-02T09:13:13.010Z,12.85
2022-11-02T09:18:15.647Z,12.89
2022-11-02T09:23:20.715Z,13.00
2022-11-02T09:28:23.291Z,13.05
2022-11-02T09:33:25.916Z,13.15
2022-11-02T09:38:30.031Z,13.25
2022-11-02T09:43:40.528Z,13.37
2022-11-02T09:48:44.692Z,13.49
2022-11-02T09:53:57.244Z,13.54
2022-11-02T09:59:01.988Z,13.65
2022-11-02T10:04:32.868Z,13.78
2022-11-02T10:09:41.699Z,13.91
2022-11-02T10:14:52.955Z,14.02
2022-11-02T10:19:57.420Z,14.15
2022-11-02T10:25:02.881Z,14.25
2022-11-02T10:30:08.146Z,14.34
2022-11-02T10:35:33.848Z,14.41
2022-11-02T10:40:50.876Z,14.47
2022-11-02T10:46:30.545Z,14.50
2022-11-02T10:51:33.145Z,14.66
2022-11-02T10:56:37.510Z,14.75
2022-11-02T11:01:46.226Z,14.88
2022-11-02T11:06:54.264Z,14.96
2022-11-02T11:11:59.973Z,15.08
2022-11-02T11:22:28.553Z,15.35
2022-11-02T11:27:45.254Z,15.83
2022-11-02T11:32:49.550Z,15.52
2022-11-02T11:37:54.161Z,15.52
2022-11-02T11:43:01.585Z,15.82
2022-11-02T11:48:08.850Z,15.95
2022-11-02T11:53:17.456Z,16.28
2022-11-02T11:58:22.724Z,16.32
2022-11-02T12:03:25.342Z,16.33
2022-11-02T12:08:39.507Z,15.51
2022-11-02T12:13:55.447Z,16.38
2022-11-02T12:19:07.391Z,16.52
2022-11-02T12:24:34.776Z,16.03
2022-11-02T12:29:53.559Z,15.57
2022-11-02T12:35:27.697Z,15.18
2022-11-02T12:40:39.614Z,15.12
2022-11-02T12:45:48.192Z,14.89
2022-11-02T12:50:59.148Z,15.67
2022-11-02T12:56:02.707Z,16.07
2022-11-02T13:01:13.855Z,15.55
2022-11-02T13:06:19.649Z,15.31
2022-11-02T13:11:24.537Z,15.33
2022-11-02T13:16:35.124Z,15.11
2022-11-02T13:21:43.953Z,15.25
2022-11-02T13:26:57.256Z,14.75
2022-11-02T13:32:07.465Z,14.42
2022-11-02T13:37:22.357Z,14.47
2022-11-02T13:42:41.450Z,14.52
2022-11-02T13:48:02.728Z,14.56
2022-11-02T13:53:08.754Z,14.56
2022-11-02T13:58:22.207Z,14.54
2022-11-02T14:03:29.172Z,14.51
2022-11-02T14:08:38.105Z,14.50
2022-11-02T14:14:07.186Z,14.44
2022-11-02T14:19:25.899Z,14.40
2022-11-02T14:24:56.624Z,14.34
2022-11-02T14:29:59.697Z,14.31
2022-11-02T14:35:34.454Z,14.26
2022-11-02T14:40:43.216Z,14.22
2022-11-02T14:46:09.732Z,14.21
2022-11-02T14:51:17.810Z,14.13
2022-11-02T14:56:20.628Z,14.10
2022-11-02T15:01:23.987Z,14.07
2022-11-02T15:06:31.081Z,14.01
2022-11-02T15:11:49.365Z,13.97
2022-11-02T15:16:52.804Z,13.89
2022-11-02T15:22:29.971Z,13.75
2022-11-02T15:27:33.383Z,13.51
2022-11-02T15:32:40.133Z,13.24
2022-11-02T15:38:03.555Z,13.12
2022-11-02T15:43:13.609Z,13.08
2022-11-02T15:48:28.658Z,13.05
2022-11-02T15:54:18.967Z,12.96
2022-11-02T15:59:37.695Z,12.88
2022-11-02T16:04:45.311Z,12.92
2022-11-02T16:09:48.533Z,12.98
2022-11-02T16:14:58.296Z,13.00
2022-11-02T16:20:13.102Z,12.93
2022-11-02T16:25:20.207Z,12.91
2022-11-02T16:30:24.591Z,12.90
2022-11-02T16:35:27.526Z,12.90
2022-11-02T16:40:30.482Z,12.88
2022-11-02T16:45:42.065Z,12.85
2022-11-02T16:51:15.624Z,12.84
2022-11-02T16:56:27.468Z,12.81
2022-11-02T17:01:38.859Z,12.80
2022-11-02T17:06:42.335Z,12.78
2022-11-02T17:11:45.438Z,12.75
2022-11-02T17:17:04.759Z,12.71
2022-11-02T17:22:12.960Z,12.56
2022-11-02T17:27:24.717Z,12.36
2022-11-02T17:32:28.802Z,12.10
2022-11-02T17:37:32.524Z,11.83
2022-11-02T17:42:53.988Z,11.86
2022-11-02T17:47:59.060Z,12.01
2022-11-02T17:53:02.774Z,12.10
2022-11-02T17:58:07.491Z,12.06
2022-11-02T18:03:15.724Z,11.99
2022-11-02T18:08:18.443Z,12.00
2022-11-02T18:13:22.531Z,11.99
2022-11-02T18:18:26.470Z,11.99
2022-11-02T18:23:31.263Z,11.93
2022-11-02T18:28:33.940Z,11.91
2022-11-02T18:33:38.023Z,11.90
2022-11-02T18:38:40.795Z,11.81
2022-11-02T18:43:43.490Z,11.69
2022-11-02T18:48:47.645Z,11.66
2022-11-02T18:53:57.253Z,11.62
2022-11-02T18:58:59.918Z,11.52
2022-11-02T19:04:17.423Z,11.49
2022-11-02T19:09:23.010Z,11.40
2022-11-02T19:14:25.804Z,11.22
2022-11-02T19:19:29.860Z,11.24
2022-11-02T19:24:32.437Z,11.29
2022-11-02T19:29:34.999Z,11.36
2022-11-02T19:34:39.096Z,11.31
2022-11-02T19:39:45.854Z,11.25
2022-11-02T19:44:53.467Z,11.23
2022-11-02T19:49:57.388Z,11.19
2022-11-02T19:55:03.170Z,11.13
2022-11-02T20:00:06.629Z,11.01
2022-11-02T20:05:14.586Z,11.02
2022-11-02T20:10:17.264Z,10.97
2022-11-02T20:15:19.881Z,10.85
2022-11-02T20:20:23.988Z,10.75
2022-11-02T20:25:26.604Z,10.77
2022-11-02T20:30:29.199Z,10.71
2022-11-02T20:35:33.124Z,10.62
2022-11-02T20:40:40.979Z,10.63
2022-11-02T20:45:43.885Z,10.62
2022-11-02T20:50:47.756Z,10.56
2022-11-02T20:55:50.433Z,10.52
2022-11-02T21:00:53.860Z,10.53
2022-11-02T21:05:58.095Z,10.50
2022-11-02T21:11:02.240Z,10.52
2022-11-02T21:16:05.193Z,10.46
2022-11-02T21:21:10.611Z,10.47
2022-11-02T21:26:16.814Z,10.46
2022-11-02T21:31:21.368Z,10.43
2022-11-02T21:36:25.412Z,10.46
2022-11-02T21:41:29.363Z,10.45
2022-11-02T21:46:31.988Z,10.42
2022-11-02T21:51:37.151Z,10.42
2022-11-02T21:56:39.968Z,10.32
2022-11-02T22:01:46.710Z,10.33
2022-11-02T22:06:51.206Z,10.31
2022-11-02T22:12:16.043Z,10.25
2022-11-02T22:17:43.760Z,10.27
2022-11-02T22:22:42.521Z,10.26
2022-11-02T22:27:45.072Z,10.24
2022-11-02T22:32:47.669Z,10.16
2022-11-02T22:38:17.588Z,10.17
2022-11-02T22:43:20.179Z,10.07
2022-11-02T22:48:22.728Z,10.00
2022-11-02T22:53:27.652Z,9.92
2022-11-02T22:58:31.241Z,9.82
2022-11-02T23:03:34.202Z,9.80
2022-11-02T23:08:39.783Z,9.73
2022-11-02T23:13:43.642Z,9.72
2022-11-02T23:19:03.835Z,9.71
2022-11-02T23:24:26.201Z,9.66
2022-11-02T23:29:46.176Z,9.60
2022-11-02T23:35:02.765Z,9.62
2022-11-02T23:40:08.239Z,9.58
2022-11-02T23:45:11.580Z,9.55
2022-11-02T23:50:14.311Z,9.50
2022-11-02T23:55:35.641Z,9.45
